懐かしの鶴丸

旧塗装の日本航空B777
垂直尾翼のJALの鶴丸が懐かしい!
JAL Boeing777
かなり昔、日本の国際線といえばこの鶴丸でしたよね。
このマークがドカーンとプリントされたカバンで高校に通ったものでした。。。
JAL Boeing777 アップ
そういえば、関東地方は梅雨入り宣言した翌日から、とっても良い天気が続いてます。
今日も夏日・真夏日? とっても暑い毎日です。
水不足や農作物の不作などが心配ですね。
9時間後の羽田空港の予報:
TAF RJTT 192040Z 200624 18018KT 9999 FEW030
TEMPO 0612 20018G28KT
南風がやや強く、視程は10km以上。雲は低いところにまばらにある程度。
午後になって、時々突風があるようです。

2 comments

  • ほんとに今日も快晴で暑いですね。
    でも朝のニュースによると
    明日からは雨の確率が高いとか…。
    今夜から天気は荒れ始めるのでしょうか。
    アメリカに行っている従妹が
    今夜、帰国する予定です。
    無事に帰ってきてくれるといいな。
    (多分、本人は山のように仕事が待っている日常には
    戻りたくないと思っているでしょうが(^^;)

  • >ROUGEさん
    今朝も朝から暑い陽射しですね。。。
    うんざりしてしまいます。
    金曜日からようやく梅雨らしい天気になるそうですが、
    なぜ、仕事のある平日は天気が良くて、休みの週末には、
    梅雨らしい天気なの?
    ホント、最近いいことまったく無いです。

コメントを残す

メールアドレスが公開されることはありません。